Time;durP1;ratioP1;P1;durP2;ratioP2;P2;SDS_P1;SDS_P2;PMS_P1;PMS_P2;Temp;Humidity;BMP_temperature;BMP_pressure;BME280_temperature;BME280_humidity;BME280_pressure;Samples;Min_cycle;Max_cycle;Signal;HPM_P1;HPM_P2
2023/10/21 00:02:09;;;;;;;4.17;4.07;;;15.20;99.90;;;;;;5052972;28;20769;-71
2023/10/21 00:04:35;;;;;;;4.47;4.13;;;15.20;99.90;;;;;;5051679;28;20628;-70
2023/10/21 00:07:02;;;;;;;4.50;4.10;;;15.20;99.90;;;;;;5053889;28;20209;-72
2023/10/21 00:09:28;;;;;;;5.60;5.10;;;15.20;99.90;;;;;;5052154;28;20183;-72
2023/10/21 00:11:53;;;;;;;4.63;4.23;;;15.20;99.90;;;;;;5051672;28;20399;-71
2023/10/21 00:14:19;;;;;;;3.50;3.30;;;15.30;99.90;;;;;;5052439;28;20267;-62
2023/10/21 00:16:45;;;;;;;3.60;3.40;;;15.30;99.90;;;;;;5051973;28;20247;-71
2023/10/21 00:19:11;;;;;;;3.67;3.47;;;15.40;99.90;;;;;;5053439;28;20706;-71
2023/10/21 00:21:37;;;;;;;3.60;3.40;;;15.50;99.90;;;;;;5051975;28;20594;-71
2023/10/21 00:24:03;;;;;;;3.33;3.13;;;15.50;99.90;;;;;;5055109;28;20173;-71
2023/10/21 00:26:29;;;;;;;3.77;3.47;;;15.50;99.90;;;;;;5051726;28;20515;-71
2023/10/21 00:28:55;;;;;;;4.30;3.97;;;15.60;99.90;;;;;;5052631;28;20678;-71
2023/10/21 00:31:21;;;;;;;3.30;3.20;;;15.60;99.90;;;;;;5055528;28;20675;-62
2023/10/21 00:33:47;;;;;;;2.97;2.87;;;15.60;99.90;;;;;;5049565;28;20220;-70
2023/10/21 00:36:13;;;;;;;3.00;2.80;;;15.60;99.90;;;;;;5032254;28;20940;-71
2023/10/21 00:38:38;;;;;;;3.50;3.30;;;15.50;99.90;;;;;;5035588;28;20876;-70
2023/10/21 00:41:04;;;;;;;3.10;3.00;;;15.60;99.90;;;;;;5045392;28;20301;-71
2023/10/21 00:43:33;;;;;;;3.10;3.00;;;15.60;99.90;;;;;;5051609;28;20170;-70
2023/10/21 00:46:09;;;;;;;3.67;3.53;;;15.60;99.90;;;;;;5039136;28;20178;-71
2023/10/21 00:48:35;;;;;;;3.00;2.83;;;15.60;99.90;;;;;;5032022;28;20420;-71
2023/10/21 00:51:01;;;;;;;3.50;3.40;;;15.60;99.90;;;;;;5032664;28;20555;-71
2023/10/21 00:53:28;;;;;;;3.23;3.03;;;15.50;99.90;;;;;;5031389;28;20522;-70
2023/10/21 00:55:54;;;;;;;3.83;3.73;;;15.50;99.90;;;;;;5032460;28;20209;-71
2023/10/21 00:58:21;;;;;;;4.17;3.93;;;15.50;99.90;;;;;;5032225;28;20419;-62
2023/10/21 01:00:47;;;;;;;4.90;4.40;;;15.50;99.90;;;;;;5051416;28;20426;-71
2023/10/21 01:03:12;;;;;;;4.00;3.90;;;15.40;99.90;;;;;;5037717;28;20428;-71
2023/10/21 01:05:38;;;;;;;3.50;3.40;;;15.50;99.90;;;;;;5031244;28;20908;-71
2023/10/21 01:08:04;;;;;;;4.10;4.00;;;15.50;99.90;;;;;;5032208;28;20170;-71
2023/10/21 01:10:30;;;;;;;4.07;3.87;;;15.50;99.90;;;;;;5034107;28;20174;-70
2023/10/21 01:12:56;;;;;;;3.90;3.80;;;15.50;99.90;;;;;;5034097;28;20431;-71
2023/10/21 01:15:21;;;;;;;4.07;3.70;;;15.60;99.90;;;;;;5035383;28;20539;-63
2023/10/21 01:17:50;;;;;;;4.37;4.17;;;15.70;99.90;;;;;;5043652;28;20180;-70
2023/10/21 01:20:19;;;;;;;4.10;3.90;;;15.80;99.90;;;;;;5051957;28;20181;-70
2023/10/21 01:22:45;;;;;;;4.10;4.00;;;15.80;99.90;;;;;;5037049;28;20420;-70
2023/10/21 01:25:11;;;;;;;4.40;4.20;;;15.80;99.90;;;;;;5043376;28;20413;-70
2023/10/21 01:27:37;;;;;;;4.20;4.00;;;15.90;99.90;;;;;;5035567;28;20249;-70
2023/10/21 01:30:06;;;;;;;3.50;3.40;;;15.90;99.90;;;;;;5035984;28;20679;-70
2023/10/21 01:32:33;;;;;;;3.10;3.00;;;16.00;99.90;;;;;;5035825;28;20861;-71
2023/10/21 01:34:58;;;;;;;2.97;2.87;;;16.00;99.90;;;;;;5035937;28;20448;-71
2023/10/21 01:37:24;;;;;;;3.70;3.60;;;16.00;99.90;;;;;;5042651;28;20473;-63
2023/10/21 01:39:50;;;;;;;3.80;3.60;;;16.00;99.90;;;;;;5048856;28;20590;-71
2023/10/21 01:42:16;;;;;;;3.10;3.00;;;16.00;99.90;;;;;;5035879;28;20178;-70
2023/10/21 01:44:42;;;;;;;3.47;3.37;;;16.00;99.90;;;;;;5048043;28;20337;-70
2023/10/21 01:47:07;;;;;;;3.07;2.97;;;16.00;99.90;;;;;;5053780;28;20637;-71
2023/10/21 01:49:33;;;;;;;3.77;3.47;;;16.00;99.90;;;;;;5049580;28;20435;-70
2023/10/21 01:51:59;;;;;;;3.43;3.33;;;16.10;99.90;;;;;;5040709;28;20633;-70
2023/10/21 01:54:25;;;;;;;3.50;3.40;;;16.10;99.90;;;;;;5035995;28;20162;-62
2023/10/21 01:56:52;;;;;;;3.20;3.10;;;16.10;99.90;;;;;;5054550;28;20509;-70
2023/10/21 01:59:18;;;;;;;3.03;2.93;;;16.10;99.90;;;;;;5035704;28;20409;-70
2023/10/21 02:01:44;;;;;;;3.43;3.33;;;16.10;99.90;;;;;;5035692;28;20486;-71
2023/10/21 02:04:10;;;;;;;3.53;3.20;;;16.10;99.90;;;;;;5035472;28;20892;-70
2023/10/21 02:06:35;;;;;;;3.43;3.33;;;16.10;99.90;;;;;;5034885;28;20264;-70
2023/10/21 02:09:01;;;;;;;3.17;3.07;;;16.00;99.90;;;;;;5035353;28;20167;-70
2023/10/21 02:11:27;;;;;;;3.43;3.30;;;16.00;99.90;;;;;;5046607;28;20174;-63
2023/10/21 02:13:53;;;;;;;3.40;3.30;;;16.00;99.90;;;;;;5054142;28;20176;-70
2023/10/21 02:16:19;;;;;;;3.50;3.40;;;16.00;99.90;;;;;;5053360;28;20201;-71
2023/10/21 02:18:45;;;;;;;4.50;3.50;;;16.00;99.90;;;;;;5041687;28;20178;-71
2023/10/21 02:21:11;;;;;;;4.10;3.90;;;16.00;99.90;;;;;;5046818;28;20511;-69
2023/10/21 02:23:37;;;;;;;4.87;4.50;;;16.00;99.90;;;;;;5016524;28;20621;-70
2023/10/21 02:26:04;;;;;;;4.47;4.37;;;16.00;99.90;;;;;;5052549;28;20311;-70
2023/10/21 02:28:31;;;;;;;5.10;4.70;;;16.00;99.90;;;;;;5047562;28;20173;-69
2023/10/21 02:30:57;;;;;;;4.20;4.10;;;16.00;99.90;;;;;;5036486;28;20788;-70
2023/10/21 02:33:25;;;;;;;4.70;4.50;;;16.00;99.90;;;;;;5038041;28;20452;-69
2023/10/21 02:35:52;;;;;;;5.03;4.83;;;16.00;99.90;;;;;;5036967;28;20448;-69
2023/10/21 02:38:19;;;;;;;4.90;4.70;;;16.00;99.90;;;;;;5054755;28;20422;-70
2023/10/21 02:40:45;;;;;;;4.80;4.60;;;16.00;99.90;;;;;;5042035;28;20424;-69
2023/10/21 02:43:11;;;;;;;5.07;4.70;;;16.00;99.90;;;;;;5034429;28;20884;-69
2023/10/21 02:45:36;;;;;;;4.47;4.27;;;16.00;99.90;;;;;;5033835;28;20511;-69
2023/10/21 02:48:02;;;;;;;4.70;4.50;;;16.00;99.90;;;;;;5038882;28;20420;-70
2023/10/21 02:50:28;;;;;;;4.80;4.60;;;16.00;99.90;;;;;;5053385;28;20416;-62
2023/10/21 02:52:54;;;;;;;4.77;4.67;;;16.00;99.90;;;;;;5054150;28;20514;-69
2023/10/21 02:55:20;;;;;;;5.40;4.80;;;16.00;99.90;;;;;;5041336;28;20285;-70
2023/10/21 02:57:45;;;;;;;4.10;4.00;;;16.00;99.90;;;;;;5033396;28;20568;-69
2023/10/21 03:00:21;;;;;;;4.77;4.57;;;16.00;99.90;;;;;;5034388;28;20177;-69
2023/10/21 03:02:51;;;;;;;4.60;4.50;;;15.90;99.90;;;;;;5040709;28;20208;-69
2023/10/21 03:05:18;;;;;;;4.60;4.40;;;15.90;99.90;;;;;;5036328;28;20429;-69
2023/10/21 03:07:44;;;;;;;4.60;4.30;;;15.90;99.90;;;;;;5033370;28;20923;-69
2023/10/21 03:10:10;;;;;;;4.67;4.40;;;16.00;99.90;;;;;;5033655;28;20401;-70
2023/10/21 03:12:36;;;;;;;4.10;4.00;;;15.90;99.90;;;;;;5033678;28;20192;-69
2023/10/21 03:15:03;;;;;;;4.57;4.43;;;15.90;99.90;;;;;;5033766;28;20428;-69
2023/10/21 03:17:30;;;;;;;4.20;4.00;;;16.00;99.90;;;;;;5033254;28;20916;-62
2023/10/21 03:19:55;;;;;;;4.97;4.77;;;16.00;99.90;;;;;;5042901;28;20515;-69
2023/10/21 03:22:21;;;;;;;5.00;4.80;;;16.00;99.90;;;;;;5038543;28;20523;-69
2023/10/21 03:24:47;;;;;;;5.27;4.97;;;16.00;99.90;;;;;;5032874;28;20266;-69
2023/10/21 03:27:13;;;;;;;4.70;4.50;;;16.00;99.90;;;;;;5033904;28;20474;-69
2023/10/21 03:29:42;;;;;;;5.17;4.83;;;16.00;99.90;;;;;;5015443;28;20888;-70
2023/10/21 03:32:09;;;;;;;5.23;4.93;;;16.00;99.90;;;;;;5015973;28;20228;-69
2023/10/21 03:34:35;;;;;;;5.10;4.80;;;16.00;99.90;;;;;;5014655;28;20962;-69
2023/10/21 03:37:01;;;;;;;5.53;5.00;;;16.00;99.90;;;;;;5034240;28;20463;-69
2023/10/21 03:39:27;;;;;;;5.90;5.70;;;15.90;99.90;;;;;;5036059;28;20204;-69
2023/10/21 03:41:53;;;;;;;6.20;5.90;;;15.90;99.90;;;;;;5046367;28;21318;-70
2023/10/21 03:44:19;;;;;;;5.43;5.23;;;15.90;99.90;;;;;;5043879;28;20432;-70
2023/10/21 03:46:45;;;;;;;5.97;5.63;;;15.90;99.90;;;;;;5015169;28;20486;-70
2023/10/21 03:49:11;;;;;;;5.93;5.70;;;15.90;99.90;;;;;;5015339;28;20186;-69
2023/10/21 03:51:37;;;;;;;6.40;6.10;;;15.90;99.90;;;;;;5032793;28;20475;-69
2023/10/21 03:54:03;;;;;;;5.90;5.60;;;15.90;99.90;;;;;;5033480;28;20777;-69
2023/10/21 03:56:29;;;;;;;6.83;6.43;;;15.90;99.90;;;;;;5033192;28;20444;-69
2023/10/21 03:58:55;;;;;;;5.77;5.40;;;15.90;99.90;;;;;;5049334;28;20435;-69
2023/10/21 04:01:20;;;;;;;5.37;5.07;;;16.00;99.90;;;;;;5051184;28;20419;-69
2023/10/21 04:03:47;;;;;;;6.00;5.70;;;16.00;99.90;;;;;;5052276;28;20174;-69
2023/10/21 04:06:17;;;;;;;5.03;4.77;;;16.00;99.90;;;;;;5035906;28;20260;-70
2023/10/21 04:08:43;;;;;;;5.23;4.93;;;16.00;99.90;;;;;;5032892;28;20409;-70
2023/10/21 04:11:09;;;;;;;4.43;4.33;;;16.00;99.90;;;;;;5033456;28;20409;-70
2023/10/21 04:13:35;;;;;;;5.00;4.80;;;16.00;99.90;;;;;;5044245;28;20415;-62
2023/10/21 04:16:01;;;;;;;5.00;4.80;;;16.00;99.90;;;;;;5041005;28;20201;-70
2023/10/21 04:18:27;;;;;;;5.77;5.27;;;16.00;99.90;;;;;;5042018;28;20435;-70
2023/10/21 04:20:52;;;;;;;5.60;5.40;;;16.10;99.90;;;;;;5048556;28;20432;-70
2023/10/21 04:23:18;;;;;;;5.13;4.83;;;16.10;99.90;;;;;;5050258;28;20622;-69
2023/10/21 04:25:44;;;;;;;5.57;5.37;;;16.10;99.90;;;;;;5051673;28;20265;-69
2023/10/21 04:28:10;;;;;;;5.10;4.90;;;16.10;99.90;;;;;;5039485;28;20178;-69
2023/10/21 04:30:36;;;;;;;5.60;5.40;;;16.10;99.90;;;;;;5031921;28;20496;-62
2023/10/21 04:33:02;;;;;;;5.77;5.57;;;16.10;99.90;;;;;;5032224;28;20503;-70
2023/10/21 04:35:28;;;;;;;5.23;5.03;;;16.10;99.90;;;;;;5029791;28;20259;-70
2023/10/21 04:37:55;;;;;;;7.57;7.07;;;16.10;99.90;;;;;;5035397;28;20429;-70
2023/10/21 04:40:20;;;;;;;5.70;5.30;;;16.10;99.90;;;;;;5052519;28;20414;-71
2023/10/21 04:42:46;;;;;;;5.43;5.13;;;16.10;99.90;;;;;;5041693;28;20893;-70
2023/10/21 04:45:12;;;;;;;5.93;5.63;;;16.10;99.90;;;;;;5032564;28;20173;-70
2023/10/21 04:47:38;;;;;;;5.87;5.37;;;16.10;99.90;;;;;;5030941;28;20178;-63
2023/10/21 04:50:05;;;;;;;5.20;5.00;;;16.10;99.90;;;;;;5006972;28;20232;-71
2023/10/21 04:52:31;;;;;;;5.83;5.53;;;16.10;99.90;;;;;;5040982;28;20467;-70
2023/10/21 04:54:57;;;;;;;7.13;6.70;;;16.10;99.90;;;;;;5032593;28;20421;-70
2023/10/21 04:57:23;;;;;;;6.03;5.60;;;16.10;99.90;;;;;;5032320;28;20443;-70
2023/10/21 04:59:48;;;;;;;5.67;5.37;;;16.10;99.90;;;;;;5031091;28;20409;-70
2023/10/21 05:02:14;;;;;;;5.60;5.30;;;16.20;99.90;;;;;;5043927;28;20181;-70
2023/10/21 05:04:40;;;;;;;5.57;5.27;;;16.20;99.90;;;;;;5029725;28;20178;-72
2023/10/21 05:07:06;;;;;;;8.30;7.60;;;16.20;99.90;;;;;;5022206;28;20192;-73
2023/10/21 05:09:32;;;;;;;6.47;6.17;;;16.20;99.90;;;;;;5042213;28;20508;-72
2023/10/21 05:11:59;;;;;;;5.30;5.10;;;16.20;99.90;;;;;;5033487;28;20435;-72
2023/10/21 05:14:26;;;;;;;5.50;5.30;;;16.20;99.90;;;;;;5045805;28;20178;-64
2023/10/21 05:16:52;;;;;;;5.80;5.60;;;16.20;99.90;;;;;;5031102;28;20580;-72
2023/10/21 05:19:17;;;;;;;6.03;5.73;;;16.20;99.90;;;;;;5032141;28;20477;-72
2023/10/21 05:21:43;;;;;;;6.13;5.83;;;16.20;99.90;;;;;;5031333;28;20406;-72
2023/10/21 05:24:10;;;;;;;6.60;6.20;;;16.20;99.90;;;;;;5031842;28;20251;-71
2023/10/21 05:26:36;;;;;;;7.00;6.60;;;16.20;99.90;;;;;;5031221;28;20409;-64
2023/10/21 05:29:02;;;;;;;6.67;6.23;;;16.20;99.90;;;;;;5031239;28;20912;-72
2023/10/21 05:31:28;;;;;;;6.60;6.20;;;16.30;99.90;;;;;;5034427;28;20505;-73
2023/10/21 05:33:57;;;;;;;7.00;6.53;;;16.20;99.90;;;;;;5050074;28;20217;-72
2023/10/21 05:36:24;;;;;;;6.40;6.00;;;16.30;99.90;;;;;;5044773;28;20982;-72
2023/10/21 05:38:50;;;;;;;6.47;6.17;;;16.30;99.90;;;;;;5050600;28;20447;-72
2023/10/21 05:41:15;;;;;;;5.93;5.63;;;16.30;99.90;;;;;;5040265;28;20507;-72
2023/10/21 05:43:41;;;;;;;6.07;5.73;;;16.20;99.90;;;;;;5045267;28;20857;-71
2023/10/21 05:46:07;;;;;;;5.57;5.27;;;16.20;99.90;;;;;;5032817;28;20184;-72
2023/10/21 05:48:33;;;;;;;7.07;6.47;;;16.20;99.90;;;;;;5031791;28;20171;-73
2023/10/21 05:51:02;;;;;;;6.53;6.20;;;16.20;99.90;;;;;;5036229;28;20911;-73
2023/10/21 05:53:28;;;;;;;6.60;6.20;;;16.20;99.90;;;;;;5034018;28;20531;-73
2023/10/21 05:55:55;;;;;;;6.37;6.00;;;16.30;99.90;;;;;;5049126;28;20443;-73
2023/10/21 05:58:21;;;;;;;6.70;6.40;;;16.20;99.90;;;;;;5049760;28;20424;-73
2023/10/21 06:00:47;;;;;;;6.70;6.40;;;16.30;99.90;;;;;;5036802;28;20805;-72
2023/10/21 06:03:13;;;;;;;8.60;8.10;;;16.30;99.90;;;;;;5051610;28;20185;-73
2023/10/21 06:05:39;;;;;;;7.07;6.63;;;16.30;99.90;;;;;;5032552;28;20181;-65
2023/10/21 06:08:05;;;;;;;6.60;6.20;;;16.30;99.90;;;;;;5054584;28;20420;-75
2023/10/21 06:10:31;;;;;;;7.03;6.63;;;16.30;99.90;;;;;;5026992;28;20412;-79
2023/10/21 06:12:57;;;;;;;7.20;6.70;;;16.30;99.90;;;;;;5035106;28;20907;-78
2023/10/21 06:15:23;;;;;;;6.07;5.77;;;16.20;99.90;;;;;;5046111;28;20170;-63
2023/10/21 06:17:49;;;;;;;6.10;5.80;;;16.20;99.90;;;;;;5035974;28;20171;-62
2023/10/21 06:20:14;;;;;;;6.80;6.50;;;16.40;99.90;;;;;;5027542;28;20462;-65
2023/10/21 06:22:40;;;;;;;6.10;5.80;;;16.50;99.90;;;;;;5043626;28;20619;-61
2023/10/21 06:25:08;;;;;;;5.27;5.07;;;16.70;99.90;;;;;;5035026;28;20598;-63
2023/10/21 06:27:33;;;;;;;7.63;7.17;;;16.80;99.90;;;;;;5045338;28;20177;-63
2023/10/21 06:29:59;;;;;;;6.57;6.03;;;17.00;99.90;;;;;;5018360;28;20431;-63
2023/10/21 06:32:25;;;;;;;5.17;4.97;;;17.10;99.90;;;;;;5056539;28;20205;-63
2023/10/21 06:34:51;;;;;;;6.27;5.67;;;17.10;99.90;;;;;;5053259;28;20170;-63
2023/10/21 06:37:16;;;;;;;5.43;5.13;;;17.00;99.90;;;;;;5046748;28;20557;-63
2023/10/21 06:39:42;;;;;;;4.87;4.57;;;17.10;99.90;;;;;;5034603;28;20181;-61
2023/10/21 06:42:08;;;;;;;4.60;4.40;;;17.20;99.90;;;;;;5034494;28;20265;-63
2023/10/21 06:44:36;;;;;;;4.63;4.40;;;17.20;99.90;;;;;;5042711;28;20562;-63
2023/10/21 06:47:01;;;;;;;5.17;4.97;;;17.20;99.90;;;;;;5046851;28;20192;-64
2023/10/21 06:49:27;;;;;;;5.10;4.67;;;17.10;99.90;;;;;;5045154;28;20424;-64
2023/10/21 06:51:55;;;;;;;4.67;4.47;;;17.20;99.90;;;;;;5052290;28;20754;-63
2023/10/21 06:54:21;;;;;;;5.80;5.43;;;17.30;99.90;;;;;;5041293;28;20236;-64
2023/10/21 06:56:47;;;;;;;7.20;6.50;;;17.10;99.90;;;;;;5037253;28;20514;-62
2023/10/21 06:59:13;;;;;;;4.50;4.30;;;16.90;99.90;;;;;;5049903;28;20434;-63
2023/10/21 07:01:40;;;;;;;4.60;4.40;;;17.10;99.90;;;;;;5040895;28;20509;-63
2023/10/21 07:04:09;;;;;;;3.83;3.70;;;17.00;99.90;;;;;;5033384;28;20457;-63
2023/10/21 07:06:36;;;;;;;4.70;4.50;;;17.10;99.90;;;;;;5017540;28;20421;-63
2023/10/21 07:09:02;;;;;;;5.40;5.10;;;17.10;99.90;;;;;;5033288;28;20452;-63
2023/10/21 07:11:28;;;;;;;6.30;6.00;;;17.10;99.90;;;;;;5034552;28;20885;-63
2023/10/21 07:13:54;;;;;;;4.33;4.00;;;17.30;99.90;;;;;;5032222;28;20499;-62
2023/10/21 07:16:20;;;;;;;6.07;5.60;;;17.30;99.90;;;;;;5052343;28;20553;-63
2023/10/21 07:18:45;;;;;;;4.10;3.90;;;17.50;99.90;;;;;;5053572;28;20261;-61
2023/10/21 07:21:11;;;;;;;4.43;4.13;;;17.40;99.90;;;;;;5051211;28;20627;-63
2023/10/21 07:23:37;;;;;;;131.37;98.17;;;17.50;99.90;;;;;;5033958;28;20224;-64
2023/10/21 07:26:03;;;;;;;18.87;16.00;;;17.60;99.90;;;;;;5039803;28;20369;-65
2023/10/21 07:28:29;;;;;;;7.00;6.47;;;17.30;99.90;;;;;;5038478;28;20170;-64
2023/10/21 07:30:55;;;;;;;20.20;17.00;;;17.20;99.90;;;;;;5034858;28;20173;-65
2023/10/21 07:33:21;;;;;;;4.63;4.30;;;17.30;99.90;;;;;;5037169;28;20452;-65
2023/10/21 07:35:51;;;;;;;4.40;4.20;;;17.10;99.90;;;;;;5052702;28;20201;-61
2023/10/21 07:38:17;;;;;;;2.80;2.80;;;16.90;99.90;;;;;;5037604;28;20433;-65
2023/10/21 07:40:43;;;;;;;5.20;4.80;;;16.70;99.90;;;;;;5033851;28;20761;-62
2023/10/21 07:43:09;;;;;;;87.57;63.00;;;16.60;99.90;;;;;;5033300;28;20406;-65
2023/10/21 07:45:35;;;;;;;181.00;150.87;;;16.70;99.90;;;;;;5026335;28;20420;-65
2023/10/21 07:48:02;;;;;;;5.60;5.20;;;16.70;99.90;;;;;;5049509;28;20464;-65
2023/10/21 07:50:28;;;;;;;11.00;9.90;;;16.60;99.90;;;;;;5033261;28;20581;-65
2023/10/21 07:52:54;;;;;;;4.50;4.20;;;16.50;99.90;;;;;;5014674;28;20460;-68
2023/10/21 07:55:20;;;;;;;3.73;3.60;;;16.50;99.90;;;;;;5037252;28;20953;-70
2023/10/21 07:57:46;;;;;;;4.60;4.20;;;16.50;99.90;;;;;;5049732;28;20209;-64
2023/10/21 08:00:13;;;;;;;4.00;3.87;;;16.40;99.90;;;;;;5037798;28;20171;-69
2023/10/21 08:02:40;;;;;;;4.20;4.00;;;16.40;99.90;;;;;;5037164;28;20170;-69
2023/10/21 08:05:09;;;;;;;3.87;3.73;;;16.50;99.90;;;;;;5036930;28;20424;-71
2023/10/21 08:07:36;;;;;;;3.93;3.70;;;16.50;99.90;;;;;;5037744;28;20430;-71
2023/10/21 08:10:05;;;;;;;3.60;3.40;;;16.50;99.90;;;;;;5035956;28;20413;-73
2023/10/21 08:12:32;;;;;;;3.60;3.40;;;16.50;99.90;;;;;;5033178;28;20448;-72
2023/10/21 08:14:58;;;;;;;4.37;4.07;;;16.50;99.90;;;;;;5034091;28;20740;-73
2023/10/21 08:17:24;;;;;;;3.30;3.20;;;16.50;99.90;;;;;;5015217;28;21009;-73
2023/10/21 08:19:50;;;;;;;3.20;3.10;;;16.40;99.90;;;;;;5032182;28;20413;-73
2023/10/21 08:22:16;;;;;;;2.87;2.87;;;16.40;99.90;;;;;;5038658;28;20920;-74
2023/10/21 08:24:42;;;;;;;2.93;2.83;;;16.30;99.90;;;;;;5015879;28;20175;-74
2023/10/21 08:27:07;;;;;;;3.07;3.00;;;16.40;99.90;;;;;;5042711;28;20173;-73
2023/10/21 08:29:33;;;;;;;3.10;2.90;;;16.50;99.90;;;;;;5036771;28;20231;-75
2023/10/21 08:32:00;;;;;;;2.63;2.60;;;16.50;99.90;;;;;;5034741;28;20177;-73
2023/10/21 08:34:25;;;;;;;3.00;2.90;;;16.50;99.90;;;;;;5039394;28;20421;-72
2023/10/21 08:36:51;;;;;;;2.77;2.70;;;16.50;99.90;;;;;;5030873;28;20540;-71
2023/10/21 08:39:17;;;;;;;5.17;4.87;;;16.60;99.90;;;;;;5032637;28;20204;-74
2023/10/21 08:41:43;;;;;;;3.30;3.10;;;16.60;99.90;;;;;;5044022;28;20180;-73
2023/10/21 08:44:12;;;;;;;2.70;2.60;;;16.70;99.90;;;;;;5050202;28;20542;-67
2023/10/21 08:46:38;;;;;;;2.90;2.70;;;16.60;99.90;;;;;;5017898;28;20498;-77
2023/10/21 08:49:06;;;;;;;2.30;2.30;;;16.60;99.90;;;;;;5013277;28;20417;-71
2023/10/21 08:51:33;;;;;;;11.13;8.20;;;16.60;99.90;;;;;;5034829;28;20413;-71
2023/10/21 08:54:04;;;;;;;23.43;19.87;;;16.70;99.90;;;;;;5035563;28;20417;-71
2023/10/21 08:56:33;;;;;;;2.00;2.00;;;16.80;99.90;;;;;;5032287;28;20437;-71
2023/10/21 08:59:00;;;;;;;1.90;1.90;;;16.80;99.90;;;;;;5014676;28;20443;-71
2023/10/21 09:01:26;;;;;;;3.40;3.20;;;16.90;99.90;;;;;;5051410;28;20510;-68
2023/10/21 09:03:52;;;;;;;2.40;2.40;;;17.10;99.90;;;;;;5051803;28;20951;-64
2023/10/21 09:06:18;;;;;;;2.10;2.10;;;17.40;99.90;;;;;;5034384;28;20173;-68
2023/10/21 09:08:47;;;;;;;2.50;2.40;;;17.30;99.90;;;;;;5052179;28;20788;-68
2023/10/21 09:11:18;;;;;;;2.50;2.40;;;17.40;99.90;;;;;;5051485;28;20772;-68
2023/10/21 09:13:45;;;;;;;2.80;2.70;;;17.60;99.90;;;;;;5052305;28;20384;-67
2023/10/21 09:16:31;;;;;;;2.23;2.23;;;17.70;99.90;;;;;;5051061;28;21140;-68
2023/10/21 09:19:00;;;;;;;1.90;1.90;;;18.00;99.90;;;;;;5051394;28;20415;-69
2023/10/21 09:21:33;;;;;;;1.97;1.97;;;18.00;99.90;;;;;;5052126;28;20405;-67
2023/10/21 09:24:01;;;;;;;2.00;2.00;;;18.00;99.90;;;;;;5051389;28;20420;-67
2023/10/21 09:26:56;;;;;;;2.50;2.40;;;18.20;99.90;;;;;;5049621;28;20436;-67
2023/10/21 09:29:22;;;;;;;2.50;2.40;;;18.30;99.90;;;;;;5023560;28;20425;-70
2023/10/21 09:31:50;;;;;;;2.40;2.30;;;18.30;99.90;;;;;;5031848;28;20440;-68
2023/10/21 09:34:31;;;;;;;2.57;2.57;;;18.30;99.90;;;;;;5032024;28;20465;-69
2023/10/21 09:37:02;;;;;;;3.00;2.90;;;18.40;99.90;;;;;;5033597;28;20471;-69
2023/10/21 09:39:33;;;;;;;2.40;2.40;;;18.50;99.90;;;;;;5035884;28;20429;-69
2023/10/21 09:42:00;;;;;;;2.50;2.40;;;18.50;99.90;;;;;;5035265;28;20427;-68
2023/10/21 09:44:26;;;;;;;2.63;2.53;;;18.40;99.90;;;;;;5018483;28;20429;-69
2023/10/21 09:46:55;;;;;;;2.50;2.40;;;18.40;99.90;;;;;;5035737;28;20413;-64
2023/10/21 09:49:23;;;;;;;2.70;2.60;;;18.40;99.90;;;;;;5035752;28;20451;-69
2023/10/21 09:52:09;;;;;;;2.57;2.47;;;18.20;99.90;;;;;;5037734;28;20492;-69
2023/10/21 09:55:03;;;;;;;2.27;2.27;;;17.90;99.90;;;;;;5035200;28;20419;-67
2023/10/21 09:57:30;;;;;;;2.40;2.30;;;17.90;99.90;;;;;;5043079;28;20455;-67
2023/10/21 09:59:58;;;;;;;2.23;2.13;;;18.10;99.90;;;;;;5035860;28;20417;-63
2023/10/21 10:02:26;;;;;;;2.97;2.80;;;18.40;99.90;;;;;;5017391;28;20429;-68
2023/10/21 10:04:53;;;;;;;4.00;2.30;;;18.70;99.90;;;;;;5042360;28;20178;-64
2023/10/21 10:07:20;;;;;;;169.83;105.63;;;18.90;99.90;;;;;;5035842;28;20408;-67
2023/10/21 10:09:47;;;;;;;5.37;4.90;;;19.30;99.90;;;;;;5038345;28;20413;-65
2023/10/21 10:12:22;;;;;;;2.50;2.27;;;19.60;99.90;;;;;;5041120;28;20608;-66
2023/10/21 10:14:48;;;;;;;2.27;2.27;;;19.70;99.80;;;;;;5040958;28;20404;-65
2023/10/21 10:17:13;;;;;;;2.37;2.37;;;19.90;99.80;;;;;;5044037;28;21023;-65
2023/10/21 10:19:43;;;;;;;2.60;2.40;;;20.20;99.10;;;;;;5048802;28;20203;-66
2023/10/21 10:22:29;;;;;;;2.60;2.50;;;20.40;97.50;;;;;;5034362;28;20167;-66
2023/10/21 10:25:10;;;;;;;2.80;2.60;;;20.50;97.00;;;;;;5034702;28;20408;-62
2023/10/21 10:27:40;;;;;;;2.20;2.10;;;20.80;95.70;;;;;;5050037;28;20453;-64
2023/10/21 10:30:19;;;;;;;2.20;2.10;;;21.00;94.10;;;;;;5045315;28;20939;-63
2023/10/21 10:32:49;;;;;;;2.13;2.03;;;21.10;94.70;;;;;;5045793;28;20512;-64
2023/10/21 10:35:37;;;;;;;2.43;2.30;;;21.40;94.20;;;;;;5018289;28;21069;-64
2023/10/21 10:38:36;;;;;;;2.80;2.50;;;21.60;93.10;;;;;;5036416;28;20466;-64
2023/10/21 10:41:11;;;;;;;2.50;2.30;;;21.30;92.50;;;;;;5044551;28;20416;-64
2023/10/21 10:43:44;;;;;;;2.23;2.13;;;21.10;92.70;;;;;;5039335;28;20420;-64
2023/10/21 10:46:15;;;;;;;2.50;2.40;;;20.80;92.90;;;;;;5033993;28;20784;-65
2023/10/21 10:48:42;;;;;;;2.20;2.10;;;20.40;93.10;;;;;;5033359;28;20385;-66
2023/10/21 10:51:14;;;;;;;2.30;2.20;;;20.20;94.50;;;;;;5033777;28;20409;-65
2023/10/21 10:53:40;;;;;;;2.13;2.03;;;20.00;95.30;;;;;;5034217;28;20401;-65
2023/10/21 10:56:09;;;;;;;1.90;1.80;;;20.20;94.50;;;;;;5042171;28;20506;-70
2023/10/21 10:58:35;;;;;;;2.53;2.33;;;20.10;95.00;;;;;;5051351;28;20178;-69
2023/10/21 11:01:01;;;;;;;10.67;9.57;;;20.50;95.00;;;;;;5039614;28;20427;-69
2023/10/21 11:03:36;;;;;;;40.77;36.57;;;20.70;93.60;;;;;;5027658;28;20235;-68
2023/10/21 11:06:03;;;;;;;2.83;2.70;;;20.90;94.40;;;;;;5042179;28;20161;-69
2023/10/21 11:08:30;;;;;;;2.00;1.90;;;21.30;94.70;;;;;;5027885;28;20455;-71
2023/10/21 11:11:06;;;;;;;2.10;2.00;;;21.50;92.90;;;;;;5042561;28;20512;-62
2023/10/21 11:13:32;;;;;;;2.13;1.97;;;21.50;92.30;;;;;;5041905;28;20789;-69
2023/10/21 11:16:00;;;;;;;2.20;2.10;;;21.20;91.80;;;;;;5040279;28;20472;-62
2023/10/21 11:18:26;;;;;;;2.40;2.20;;;20.90;92.80;;;;;;5038140;28;20405;-71
2023/10/21 11:20:52;;;;;;;2.30;2.20;;;20.70;92.70;;;;;;5028208;28;20430;-72
2023/10/21 11:23:19;;;;;;;2.10;2.00;;;20.60;93.10;;;;;;5047935;28;20390;-71
2023/10/21 11:25:50;;;;;;;2.33;2.20;;;20.40;93.30;;;;;;5042062;28;20431;-69
2023/10/21 11:28:17;;;;;;;2.40;2.30;;;20.20;93.90;;;;;;5053255;28;20392;-70
2023/10/21 11:30:47;;;;;;;2.47;2.37;;;20.00;94.20;;;;;;5051334;28;20447;-67
2023/10/21 11:33:13;;;;;;;2.47;2.30;;;19.70;94.80;;;;;;5042770;28;20792;-67
2023/10/21 11:35:44;;;;;;;2.43;2.33;;;19.60;95.50;;;;;;5036586;28;20507;-66
2023/10/21 11:38:19;;;;;;;1.90;1.80;;;19.40;95.60;;;;;;5036651;28;20431;-68
2023/10/21 11:40:46;;;;;;;2.30;2.20;;;19.00;96.40;;;;;;5021923;28;20432;-75
2023/10/21 11:43:13;;;;;;;2.20;2.10;;;19.00;97.30;;;;;;5044901;28;20424;-68
2023/10/21 11:45:40;;;;;;;2.43;2.33;;;18.90;98.10;;;;;;5041896;28;20603;-67
2023/10/21 11:48:10;;;;;;;2.03;1.93;;;18.80;98.70;;;;;;5050245;28;20434;-67
2023/10/21 11:50:42;;;;;;;2.00;1.90;;;18.90;99.00;;;;;;5049276;28;20450;-68
2023/10/21 11:53:09;;;;;;;2.30;2.20;;;18.70;99.70;;;;;;5052708;28;20388;-69
2023/10/21 12:04:17;;;;;;;2.70;2.70;;;18.70;98.70;;;;;;5052981;28;20415;-68
2023/10/21 12:38:22;;;;;;;2.63;2.40;;;18.40;97.10;;;;;;5031959;28;20409;-69
2023/10/21 12:41:37;;;;;;;4.77;2.50;;;18.40;97.00;;;;;;5015365;28;20190;-69
2023/10/21 12:43:39;;;;;;;2.23;2.03;;;18.40;95.90;;;;;;5026817;28;20437;-69
2023/10/21 12:49:07;;;;;;;2.37;2.27;;;18.20;94.90;;;;;;5021795;28;20201;-69
2023/10/21 12:51:33;;;;;;;2.73;2.37;;;18.20;95.00;;;;;;5052315;28;20400;-70
2023/10/21 12:53:58;;;;;;;3.17;2.90;;;18.10;95.50;;;;;;5052350;28;20396;-69
2023/10/21 12:56:24;;;;;;;3.77;2.50;;;18.10;95.40;;;;;;5033561;28;20209;-69
2023/10/21 12:58:50;;;;;;;2.20;2.10;;;18.10;95.90;;;;;;5052277;28;20174;-71
2023/10/21 13:01:18;;;;;;;2.40;2.20;;;18.10;96.20;;;;;;5051571;28;20631;-70
2023/10/21 13:03:43;;;;;;;2.80;2.40;;;18.20;96.90;;;;;;5052469;28;20178;-70
2023/10/21 13:06:09;;;;;;;2.43;2.23;;;18.30;96.70;;;;;;5051508;28;20461;-69
2023/10/21 13:08:36;;;;;;;2.20;2.10;;;18.30;96.30;;;;;;5034376;28;20220;-69
2023/10/21 13:11:02;;;;;;;2.60;2.40;;;18.30;95.30;;;;;;5051578;28;20409;-70
2023/10/21 13:13:29;;;;;;;2.93;2.27;;;18.20;95.20;;;;;;5033840;28;20408;-70
2023/10/21 13:15:55;;;;;;;2.83;2.30;;;18.20;95.20;;;;;;5013854;28;20547;-70
2023/10/21 13:18:22;;;;;;;2.97;2.70;;;18.20;95.00;;;;;;5030071;28;20543;-70
2023/10/21 13:20:48;;;;;;;2.10;1.90;;;18.20;95.00;;;;;;5032207;28;20397;-69
2023/10/21 13:23:14;;;;;;;2.53;2.33;;;18.20;95.20;;;;;;5031121;28;20437;-69
2023/10/21 13:25:40;;;;;;;4.77;2.20;;;18.20;94.60;;;;;;5032222;28;20433;-69
2023/10/21 13:28:05;;;;;;;1.80;1.70;;;18.10;94.30;;;;;;5014211;28;20174;-62
2023/10/21 13:30:35;;;;;;;2.77;2.37;;;18.10;95.10;;;;;;5031746;28;20227;-70